Portada
METAR-TAF:

METAR-TAF

Aeroports :

Kumamoto, Japó

latitud: 32-50N, longitud: 130-51E, altitud: 193 m

Observació

L'informe es va fer fa 1 hora i 12 minuts, a les 23:00 UTC
Vent 2 kt del Est/Nord-Est
Temperatura 10°C
Humitat 93%
Pressió 1017 hPa
Visibilitat 10 km o més
Escasses núvols a una alçada de 3000 ft
Cel ennuvolat a una alçada de 5000 ft

METAR: RJFT 232300Z 07002KT 9999 FEW030 BKN050 10/09 Q1017

Hora: 09:12 (00:12 UTC)

Pronòstic

L'informe es va fer fa 1 hora i 7 minuts, a les 23:05 UTC
Pronòstic vàlid del 24 a les 00 UTC al 25 a les 06 UTC
Vent 8 kt del Oest/Nord-Oest
Visibilitat 10 km o més
Escasses núvols a una alçada de 4000 ft
Evolucionant progressivament
l' 24 a les 09 UTC al 24 a les 11 UTC
Vent 5 kt del Est/Nord-Est
Evolucionant progressivament
l' 25 a les 00 UTC al 25 a les 03 UTC
Vent 6 kt del Oest

TAF: RJFT 232305Z 2400/2506 29008KT 9999 FEW040 BECMG 2409/2411 06005KT BECMG 2500/2503 28006KT

Observacions i pronòstics meteorològics de més de 4000 aeroports (METAR i TAF).

Les estacions disponibles són els punts grocs i vermells al mapa.

Posi el ratolí al punt desitjat per veure el nom de l'estació.

Feu clic per veure les observacions i els pronòstics meteorològics.

Per canviar el mapa: feu clic els botons verds amb una creu de color negre per apropar; al botó verd amb un guió per allunyar la imatge; o en les fletxes verdes per a mapes adjacents.


METAR-TAF: